sensor_id;sensor_type;location;lat;lon;timestamp;P1;durP1;ratioP1;P2;durP2;ratioP2
69629;SDS011;56857;52.212;5.496;2023-06-05T00:01:25;13.07;;;6.50;;
69629;SDS011;56857;52.212;5.496;2023-06-05T00:03:50;13.88;;;6.07;;
69629;SDS011;56857;52.212;5.496;2023-06-05T00:06:15;13.27;;;6.25;;
69629;SDS011;56857;52.212;5.496;2023-06-05T00:08:41;11.40;;;5.80;;
69629;SDS011;56857;52.212;5.496;2023-06-05T00:11:06;11.80;;;5.28;;
69629;SDS011;56857;52.212;5.496;2023-06-05T00:13:33;12.25;;;6.20;;
69629;SDS011;56857;52.212;5.496;2023-06-05T00:15:58;12.77;;;6.10;;
69629;SDS011;56857;52.212;5.496;2023-06-05T00:18:24;11.77;;;6.57;;
69629;SDS011;56857;52.212;5.496;2023-06-05T00:20:49;11.90;;;6.45;;
69629;SDS011;56857;52.212;5.496;2023-06-05T00:23:15;10.93;;;6.07;;
69629;SDS011;56857;52.212;5.496;2023-06-05T00:25:40;13.45;;;7.38;;
69629;SDS011;56857;52.212;5.496;2023-06-05T00:28:05;13.32;;;6.60;;
69629;SDS011;56857;52.212;5.496;2023-06-05T00:30:31;10.68;;;6.30;;
69629;SDS011;56857;52.212;5.496;2023-06-05T00:32:56;10.75;;;5.75;;
69629;SDS011;56857;52.212;5.496;2023-06-05T00:35:22;13.07;;;6.82;;
69629;SDS011;56857;52.212;5.496;2023-06-05T00:37:47;13.95;;;6.97;;
69629;SDS011;56857;52.212;5.496;2023-06-05T00:40:13;10.38;;;6.20;;
69629;SDS011;56857;52.212;5.496;2023-06-05T00:42:38;11.70;;;6.60;;
69629;SDS011;56857;52.212;5.496;2023-06-05T00:45:04;12.90;;;6.38;;
69629;SDS011;56857;52.212;5.496;2023-06-05T00:47:30;11.15;;;5.63;;
69629;SDS011;56857;52.212;5.496;2023-06-05T00:49:56;10.30;;;5.97;;
69629;SDS011;56857;52.212;5.496;2023-06-05T00:52:27;12.23;;;6.07;;
69629;SDS011;56857;52.212;5.496;2023-06-05T00:54:53;12.00;;;7.15;;
69629;SDS011;56857;52.212;5.496;2023-06-05T00:57:19;16.05;;;6.38;;
69629;SDS011;56857;52.212;5.496;2023-06-05T00:59:45;15.10;;;6.50;;
69629;SDS011;56857;52.212;5.496;2023-06-05T01:02:12;13.18;;;6.03;;
69629;SDS011;56857;52.212;5.496;2023-06-05T01:04:37;11.52;;;6.13;;
69629;SDS011;56857;52.212;5.496;2023-06-05T01:07:03;12.50;;;5.70;;
69629;SDS011;56857;52.212;5.496;2023-06-05T01:09:29;15.70;;;7.32;;
69629;SDS011;56857;52.212;5.496;2023-06-05T01:14:39;13.05;;;7.28;;
69629;SDS011;56857;52.212;5.496;2023-06-05T01:17:08;13.68;;;6.68;;
69629;SDS011;56857;52.212;5.496;2023-06-05T01:19:34;12.73;;;6.25;;
69629;SDS011;56857;52.212;5.496;2023-06-05T01:22:00;13.02;;;5.93;;
69629;SDS011;56857;52.212;5.496;2023-06-05T01:24:26;13.50;;;7.20;;
69629;SDS011;56857;52.212;5.496;2023-06-05T01:29:37;14.25;;;7.50;;
69629;SDS011;56857;52.212;5.496;2023-06-05T01:32:11;13.50;;;6.90;;
69629;SDS011;56857;52.212;5.496;2023-06-05T01:34:40;14.95;;;6.85;;
69629;SDS011;56857;52.212;5.496;2023-06-05T01:37:06;12.45;;;6.65;;
69629;SDS011;56857;52.212;5.496;2023-06-05T01:39:32;11.85;;;7.00;;
69629;SDS011;56857;52.212;5.496;2023-06-05T01:41:58;18.63;;;7.40;;
69629;SDS011;56857;52.212;5.496;2023-06-05T01:44:24;12.15;;;7.38;;
69629;SDS011;56857;52.212;5.496;2023-06-05T01:46:52;11.75;;;6.97;;
69629;SDS011;56857;52.212;5.496;2023-06-05T01:49:23;11.95;;;6.78;;
69629;SDS011;56857;52.212;5.496;2023-06-05T01:51:49;10.82;;;6.53;;
69629;SDS011;56857;52.212;5.496;2023-06-05T01:54:17;13.95;;;7.07;;
69629;SDS011;56857;52.212;5.496;2023-06-05T01:56:42;12.80;;;6.57;;
69629;SDS011;56857;52.212;5.496;2023-06-05T01:59:08;13.38;;;6.68;;
69629;SDS011;56857;52.212;5.496;2023-06-05T02:01:37;12.52;;;7.07;;
69629;SDS011;56857;52.212;5.496;2023-06-05T02:04:02;11.82;;;6.32;;
69629;SDS011;56857;52.212;5.496;2023-06-05T02:06:28;14.55;;;7.30;;
69629;SDS011;56857;52.212;5.496;2023-06-05T02:08:58;15.10;;;7.80;;
69629;SDS011;56857;52.212;5.496;2023-06-05T02:11:23;13.02;;;7.38;;
69629;SDS011;56857;52.212;5.496;2023-06-05T02:13:48;12.07;;;6.68;;
69629;SDS011;56857;52.212;5.496;2023-06-05T02:16:14;13.32;;;7.20;;
69629;SDS011;56857;52.212;5.496;2023-06-05T02:18:39;11.48;;;6.78;;
69629;SDS011;56857;52.212;5.496;2023-06-05T02:21:04;13.52;;;7.97;;
69629;SDS011;56857;52.212;5.496;2023-06-05T02:23:30;14.18;;;7.13;;
69629;SDS011;56857;52.212;5.496;2023-06-05T02:25:55;13.60;;;7.50;;
69629;SDS011;56857;52.212;5.496;2023-06-05T02:28:21;11.75;;;7.10;;
69629;SDS011;56857;52.212;5.496;2023-06-05T02:30:46;13.43;;;6.70;;
69629;SDS011;56857;52.212;5.496;2023-06-05T02:33:12;14.30;;;8.13;;
69629;SDS011;56857;52.212;5.496;2023-06-05T02:35:38;12.48;;;6.82;;
69629;SDS011;56857;52.212;5.496;2023-06-05T02:38:04;15.23;;;7.28;;
69629;SDS011;56857;52.212;5.496;2023-06-05T02:40:29;13.82;;;7.22;;
69629;SDS011;56857;52.212;5.496;2023-06-05T02:42:55;15.40;;;7.15;;
69629;SDS011;56857;52.212;5.496;2023-06-05T02:45:23;16.00;;;7.67;;
69629;SDS011;56857;52.212;5.496;2023-06-05T02:47:48;12.43;;;6.85;;
69629;SDS011;56857;52.212;5.496;2023-06-05T02:50:15;14.45;;;7.55;;
69629;SDS011;56857;52.212;5.496;2023-06-05T02:52:42;14.02;;;8.57;;
69629;SDS011;56857;52.212;5.496;2023-06-05T02:55:08;12.30;;;6.63;;
69629;SDS011;56857;52.212;5.496;2023-06-05T02:57:35;13.85;;;7.50;;
69629;SDS011;56857;52.212;5.496;2023-06-05T03:00:00;13.68;;;6.78;;
69629;SDS011;56857;52.212;5.496;2023-06-05T03:02:25;13.82;;;7.57;;
69629;SDS011;56857;52.212;5.496;2023-06-05T03:04:51;15.63;;;8.20;;
69629;SDS011;56857;52.212;5.496;2023-06-05T03:07:16;12.43;;;7.23;;
69629;SDS011;56857;52.212;5.496;2023-06-05T03:09:43;13.75;;;7.30;;
69629;SDS011;56857;52.212;5.496;2023-06-05T03:12:08;17.33;;;7.15;;
69629;SDS011;56857;52.212;5.496;2023-06-05T03:14:33;14.48;;;8.15;;
69629;SDS011;56857;52.212;5.496;2023-06-05T03:16:59;15.85;;;8.60;;
69629;SDS011;56857;52.212;5.496;2023-06-05T03:19:26;14.18;;;8.15;;
69629;SDS011;56857;52.212;5.496;2023-06-05T03:21:52;16.20;;;7.93;;
69629;SDS011;56857;52.212;5.496;2023-06-05T03:24:17;14.27;;;7.43;;
69629;SDS011;56857;52.212;5.496;2023-06-05T03:26:43;12.77;;;7.22;;
69629;SDS011;56857;52.212;5.496;2023-06-05T03:29:12;16.77;;;8.38;;
69629;SDS011;56857;52.212;5.496;2023-06-05T03:31:37;14.25;;;8.05;;
69629;SDS011;56857;52.212;5.496;2023-06-05T03:34:03;16.65;;;8.48;;
69629;SDS011;56857;52.212;5.496;2023-06-05T03:36:28;13.05;;;7.43;;
69629;SDS011;56857;52.212;5.496;2023-06-05T03:38:55;13.38;;;6.85;;
69629;SDS011;56857;52.212;5.496;2023-06-05T03:41:20;13.57;;;8.27;;
69629;SDS011;56857;52.212;5.496;2023-06-05T03:43:46;14.98;;;7.60;;
69629;SDS011;56857;52.212;5.496;2023-06-05T03:46:12;15.68;;;8.05;;
69629;SDS011;56857;52.212;5.496;2023-06-05T03:48:39;17.02;;;7.97;;
69629;SDS011;56857;52.212;5.496;2023-06-05T03:51:04;13.98;;;7.40;;
69629;SDS011;56857;52.212;5.496;2023-06-05T03:53:29;13.82;;;7.30;;
69629;SDS011;56857;52.212;5.496;2023-06-05T03:55:55;15.13;;;8.05;;
69629;SDS011;56857;52.212;5.496;2023-06-05T03:58:20;15.02;;;8.77;;
69629;SDS011;56857;52.212;5.496;2023-06-05T04:00:46;13.10;;;7.90;;
69629;SDS011;56857;52.212;5.496;2023-06-05T04:03:12;15.70;;;7.93;;
69629;SDS011;56857;52.212;5.496;2023-06-05T04:05:38;16.42;;;7.93;;
69629;SDS011;56857;52.212;5.496;2023-06-05T04:08:04;15.80;;;7.95;;
69629;SDS011;56857;52.212;5.496;2023-06-05T04:10:33;14.93;;;8.10;;
69629;SDS011;56857;52.212;5.496;2023-06-05T04:12:59;18.27;;;9.02;;
69629;SDS011;56857;52.212;5.496;2023-06-05T04:15:24;15.65;;;7.80;;
69629;SDS011;56857;52.212;5.496;2023-06-05T04:17:50;13.68;;;7.40;;
69629;SDS011;56857;52.212;5.496;2023-06-05T04:20:15;16.67;;;9.02;;
69629;SDS011;56857;52.212;5.496;2023-06-05T04:22:44;15.88;;;8.63;;
69629;SDS011;56857;52.212;5.496;2023-06-05T04:25:10;16.30;;;8.50;;
69629;SDS011;56857;52.212;5.496;2023-06-05T04:27:40;17.67;;;8.07;;
69629;SDS011;56857;52.212;5.496;2023-06-05T04:30:07;19.00;;;7.93;;
69629;SDS011;56857;52.212;5.496;2023-06-05T04:32:36;18.45;;;8.60;;
69629;SDS011;56857;52.212;5.496;2023-06-05T04:35:03;14.77;;;8.45;;
69629;SDS011;56857;52.212;5.496;2023-06-05T04:37:29;17.67;;;8.98;;
69629;SDS011;56857;52.212;5.496;2023-06-05T04:39:54;15.82;;;8.00;;
69629;SDS011;56857;52.212;5.496;2023-06-05T04:42:20;15.15;;;8.90;;
69629;SDS011;56857;52.212;5.496;2023-06-05T04:44:53;13.63;;;8.65;;
69629;SDS011;56857;52.212;5.496;2023-06-05T04:47:22;17.00;;;8.55;;
69629;SDS011;56857;52.212;5.496;2023-06-05T04:49:47;16.63;;;8.43;;
69629;SDS011;56857;52.212;5.496;2023-06-05T04:52:12;18.10;;;8.93;;
69629;SDS011;56857;52.212;5.496;2023-06-05T04:54:37;16.08;;;7.97;;
69629;SDS011;56857;52.212;5.496;2023-06-05T04:57:03;16.55;;;8.70;;
69629;SDS011;56857;52.212;5.496;2023-06-05T04:59:29;17.17;;;7.97;;
69629;SDS011;56857;52.212;5.496;2023-06-05T05:01:54;15.02;;;8.00;;
69629;SDS011;56857;52.212;5.496;2023-06-05T05:04:19;15.85;;;8.52;;
69629;SDS011;56857;52.212;5.496;2023-06-05T05:06:44;14.45;;;7.32;;
69629;SDS011;56857;52.212;5.496;2023-06-05T05:09:10;13.50;;;7.93;;
69629;SDS011;56857;52.212;5.496;2023-06-05T05:11:36;14.85;;;7.50;;
69629;SDS011;56857;52.212;5.496;2023-06-05T05:14:02;17.30;;;8.38;;
69629;SDS011;56857;52.212;5.496;2023-06-05T05:16:27;14.07;;;7.57;;
69629;SDS011;56857;52.212;5.496;2023-06-05T05:18:52;18.55;;;9.20;;
69629;SDS011;56857;52.212;5.496;2023-06-05T05:21:18;15.07;;;8.13;;
69629;SDS011;56857;52.212;5.496;2023-06-05T05:23:43;18.90;;;8.73;;
69629;SDS011;56857;52.212;5.496;2023-06-05T05:26:09;19.50;;;9.00;;
69629;SDS011;56857;52.212;5.496;2023-06-05T05:28:34;14.18;;;8.20;;
69629;SDS011;56857;52.212;5.496;2023-06-05T05:31:00;15.77;;;9.23;;
69629;SDS011;56857;52.212;5.496;2023-06-05T05:33:25;13.97;;;7.43;;
69629;SDS011;56857;52.212;5.496;2023-06-05T05:35:53;17.50;;;9.63;;
69629;SDS011;56857;52.212;5.496;2023-06-05T05:38:18;14.65;;;8.50;;
69629;SDS011;56857;52.212;5.496;2023-06-05T05:40:43;15.48;;;7.95;;
69629;SDS011;56857;52.212;5.496;2023-06-05T05:43:09;16.88;;;8.65;;
69629;SDS011;56857;52.212;5.496;2023-06-05T05:45:34;12.63;;;7.65;;
69629;SDS011;56857;52.212;5.496;2023-06-05T05:48:00;14.60;;;8.87;;
69629;SDS011;56857;52.212;5.496;2023-06-05T05:50:25;15.32;;;7.97;;
69629;SDS011;56857;52.212;5.496;2023-06-05T05:52:51;16.27;;;9.13;;
69629;SDS011;56857;52.212;5.496;2023-06-05T05:55:16;20.17;;;9.30;;
69629;SDS011;56857;52.212;5.496;2023-06-05T05:57:41;18.83;;;9.17;;
69629;SDS011;56857;52.212;5.496;2023-06-05T06:00:07;16.30;;;8.73;;
69629;SDS011;56857;52.212;5.496;2023-06-05T06:02:32;14.20;;;8.35;;
69629;SDS011;56857;52.212;5.496;2023-06-05T06:04:57;16.92;;;8.90;;
69629;SDS011;56857;52.212;5.496;2023-06-05T06:07:23;15.93;;;8.60;;
69629;SDS011;56857;52.212;5.496;2023-06-05T06:09:48;14.63;;;7.80;;
69629;SDS011;56857;52.212;5.496;2023-06-05T06:12:13;14.60;;;8.65;;
69629;SDS011;56857;52.212;5.496;2023-06-05T06:14:39;16.23;;;7.32;;
69629;SDS011;56857;52.212;5.496;2023-06-05T06:17:05;15.13;;;9.37;;
69629;SDS011;56857;52.212;5.496;2023-06-05T06:19:31;15.18;;;8.95;;
69629;SDS011;56857;52.212;5.496;2023-06-05T06:21:56;17.65;;;8.65;;
69629;SDS011;56857;52.212;5.496;2023-06-05T06:24:21;15.60;;;9.00;;
69629;SDS011;56857;52.212;5.496;2023-06-05T06:26:47;15.40;;;9.00;;
69629;SDS011;56857;52.212;5.496;2023-06-05T06:29:18;15.73;;;8.48;;
69629;SDS011;56857;52.212;5.496;2023-06-05T06:31:44;16.70;;;8.43;;
69629;SDS011;56857;52.212;5.496;2023-06-05T06:34:09;16.80;;;9.63;;
69629;SDS011;56857;52.212;5.496;2023-06-05T06:36:38;15.32;;;8.18;;
69629;SDS011;56857;52.212;5.496;2023-06-05T06:39:03;15.20;;;8.25;;
69629;SDS011;56857;52.212;5.496;2023-06-05T06:41:29;14.13;;;7.85;;
69629;SDS011;56857;52.212;5.496;2023-06-05T06:43:54;17.60;;;8.10;;
69629;SDS011;56857;52.212;5.496;2023-06-05T06:46:19;17.00;;;8.13;;
69629;SDS011;56857;52.212;5.496;2023-06-05T06:48:45;16.83;;;8.65;;
69629;SDS011;56857;52.212;5.496;2023-06-05T06:51:10;14.55;;;7.82;;
69629;SDS011;56857;52.212;5.496;2023-06-05T06:53:35;14.43;;;7.75;;
69629;SDS011;56857;52.212;5.496;2023-06-05T06:56:01;13.27;;;7.70;;
69629;SDS011;56857;52.212;5.496;2023-06-05T06:58:26;17.08;;;7.72;;
69629;SDS011;56857;52.212;5.496;2023-06-05T07:00:51;14.07;;;7.77;;
69629;SDS011;56857;52.212;5.496;2023-06-05T07:03:16;15.57;;;8.30;;
69629;SDS011;56857;52.212;5.496;2023-06-05T07:05:42;13.40;;;8.17;;
69629;SDS011;56857;52.212;5.496;2023-06-05T07:08:07;16.43;;;7.77;;
69629;SDS011;56857;52.212;5.496;2023-06-05T07:10:32;13.75;;;8.10;;
69629;SDS011;56857;52.212;5.496;2023-06-05T07:12:58;15.23;;;7.82;;
69629;SDS011;56857;52.212;5.496;2023-06-05T07:15:23;13.13;;;7.70;;
69629;SDS011;56857;52.212;5.496;2023-06-05T07:17:48;15.25;;;7.85;;
69629;SDS011;56857;52.212;5.496;2023-06-05T07:20:14;14.32;;;7.80;;
69629;SDS011;56857;52.212;5.496;2023-06-05T07:22:42;16.92;;;9.05;;
69629;SDS011;56857;52.212;5.496;2023-06-05T07:25:09;16.98;;;8.70;;
69629;SDS011;56857;52.212;5.496;2023-06-05T07:27:34;14.88;;;7.32;;
69629;SDS011;56857;52.212;5.496;2023-06-05T07:30:00;14.05;;;8.23;;
69629;SDS011;56857;52.212;5.496;2023-06-05T07:32:25;16.17;;;7.10;;
69629;SDS011;56857;52.212;5.496;2023-06-05T07:34:51;13.20;;;8.10;;
69629;SDS011;56857;52.212;5.496;2023-06-05T07:37:16;16.10;;;8.40;;
69629;SDS011;56857;52.212;5.496;2023-06-05T07:39:41;16.23;;;8.73;;
69629;SDS011;56857;52.212;5.496;2023-06-05T07:42:07;14.45;;;8.57;;
69629;SDS011;56857;52.212;5.496;2023-06-05T07:44:32;15.82;;;9.30;;
69629;SDS011;56857;52.212;5.496;2023-06-05T07:46:57;13.30;;;9.10;;
69629;SDS011;56857;52.212;5.496;2023-06-05T07:49:23;15.98;;;9.30;;
69629;SDS011;56857;52.212;5.496;2023-06-05T07:51:49;15.02;;;9.05;;
69629;SDS011;56857;52.212;5.496;2023-06-05T07:54:14;14.50;;;8.23;;
69629;SDS011;56857;52.212;5.496;2023-06-05T07:56:40;16.63;;;9.00;;
69629;SDS011;56857;52.212;5.496;2023-06-05T07:59:06;14.75;;;8.60;;
69629;SDS011;56857;52.212;5.496;2023-06-05T08:01:33;14.88;;;8.80;;
69629;SDS011;56857;52.212;5.496;2023-06-05T08:03:59;15.13;;;8.98;;
69629;SDS011;56857;52.212;5.496;2023-06-05T08:06:24;15.47;;;8.10;;
69629;SDS011;56857;52.212;5.496;2023-06-05T08:08:50;14.75;;;7.38;;
69629;SDS011;56857;52.212;5.496;2023-06-05T08:11:16;14.82;;;8.40;;
69629;SDS011;56857;52.212;5.496;2023-06-05T08:13:42;16.88;;;9.60;;
69629;SDS011;56857;52.212;5.496;2023-06-05T08:16:07;14.38;;;8.68;;
69629;SDS011;56857;52.212;5.496;2023-06-05T08:18:33;14.35;;;9.05;;
69629;SDS011;56857;52.212;5.496;2023-06-05T08:21:00;14.45;;;8.27;;
69629;SDS011;56857;52.212;5.496;2023-06-05T08:23:25;17.02;;;9.32;;
69629;SDS011;56857;52.212;5.496;2023-06-05T08:25:50;17.17;;;9.00;;
69629;SDS011;56857;52.212;5.496;2023-06-05T08:28:16;13.35;;;8.70;;
69629;SDS011;56857;52.212;5.496;2023-06-05T08:30:41;16.57;;;9.27;;
69629;SDS011;56857;52.212;5.496;2023-06-05T08:33:07;15.20;;;9.00;;
69629;SDS011;56857;52.212;5.496;2023-06-05T08:35:32;17.25;;;9.15;;
69629;SDS011;56857;52.212;5.496;2023-06-05T08:37:59;13.23;;;7.07;;
69629;SDS011;56857;52.212;5.496;2023-06-05T08:40:28;13.05;;;8.30;;
69629;SDS011;56857;52.212;5.496;2023-06-05T08:42:54;13.50;;;8.13;;
69629;SDS011;56857;52.212;5.496;2023-06-05T08:45:19;20.58;;;9.27;;
69629;SDS011;56857;52.212;5.496;2023-06-05T08:47:45;11.75;;;8.15;;
69629;SDS011;56857;52.212;5.496;2023-06-05T08:50:14;11.85;;;7.18;;
69629;SDS011;56857;52.212;5.496;2023-06-05T08:52:41;14.25;;;8.05;;
69629;SDS011;56857;52.212;5.496;2023-06-05T08:55:07;11.60;;;7.45;;
69629;SDS011;56857;52.212;5.496;2023-06-05T08:57:37;13.35;;;7.10;;
69629;SDS011;56857;52.212;5.496;2023-06-05T09:00:05;12.52;;;7.15;;
69629;SDS011;56857;52.212;5.496;2023-06-05T09:02:32;14.75;;;8.45;;
69629;SDS011;56857;52.212;5.496;2023-06-05T09:04:57;13.32;;;6.70;;
69629;SDS011;56857;52.212;5.496;2023-06-05T09:07:22;12.47;;;7.83;;
69629;SDS011;56857;52.212;5.496;2023-06-05T09:09:48;11.65;;;6.35;;
69629;SDS011;56857;52.212;5.496;2023-06-05T09:12:14;11.18;;;7.53;;
69629;SDS011;56857;52.212;5.496;2023-06-05T09:14:39;13.02;;;6.68;;
69629;SDS011;56857;52.212;5.496;2023-06-05T09:17:04;15.60;;;7.68;;
69629;SDS011;56857;52.212;5.496;2023-06-05T09:19:36;11.13;;;6.60;;
69629;SDS011;56857;52.212;5.496;2023-06-05T09:22:03;10.43;;;6.03;;
69629;SDS011;56857;52.212;5.496;2023-06-05T09:24:30;11.85;;;6.05;;
69629;SDS011;56857;52.212;5.496;2023-06-05T09:26:57;10.20;;;5.10;;
69629;SDS011;56857;52.212;5.496;2023-06-05T09:29:32;11.00;;;5.68;;
69629;SDS011;56857;52.212;5.496;2023-06-05T09:32:01;13.32;;;6.60;;
69629;SDS011;56857;52.212;5.496;2023-06-05T09:36:57;12.63;;;5.97;;
69629;SDS011;56857;52.212;5.496;2023-06-05T09:39:24;11.23;;;6.00;;
69629;SDS011;56857;52.212;5.496;2023-06-05T09:41:50;11.35;;;5.57;;
69629;SDS011;56857;52.212;5.496;2023-06-05T09:44:16;10.82;;;5.78;;
69629;SDS011;56857;52.212;5.496;2023-06-05T09:47:04;10.57;;;4.82;;
69629;SDS011;56857;52.212;5.496;2023-06-05T09:49:31;11.93;;;5.20;;
69629;SDS011;56857;52.212;5.496;2023-06-05T09:52:11;9.68;;;4.90;;
69629;SDS011;56857;52.212;5.496;2023-06-05T09:54:38;10.43;;;5.38;;
69629;SDS011;56857;52.212;5.496;2023-06-05T09:57:05;9.93;;;4.47;;
69629;SDS011;56857;52.212;5.496;2023-06-05T09:59:34;13.63;;;4.80;;
69629;SDS011;56857;52.212;5.496;2023-06-05T10:02:05;8.55;;;4.53;;
69629;SDS011;56857;52.212;5.496;2023-06-05T10:04:38;10.93;;;5.03;;
69629;SDS011;56857;52.212;5.496;2023-06-05T10:07:24;9.38;;;4.70;;
69629;SDS011;56857;52.212;5.496;2023-06-05T10:09:50;10.13;;;4.57;;
69629;SDS011;56857;52.212;5.496;2023-06-05T10:12:16;8.27;;;4.22;;
69629;SDS011;56857;52.212;5.496;2023-06-05T10:14:42;9.90;;;4.45;;
69629;SDS011;56857;52.212;5.496;2023-06-05T10:17:08;8.05;;;4.47;;
69629;SDS011;56857;52.212;5.496;2023-06-05T10:19:36;10.13;;;3.92;;
69629;SDS011;56857;52.212;5.496;2023-06-05T10:22:05;9.43;;;4.78;;
69629;SDS011;56857;52.212;5.496;2023-06-05T10:24:33;10.50;;;4.63;;
69629;SDS011;56857;52.212;5.496;2023-06-05T10:40:42;7.07;;;3.50;;
69629;SDS011;56857;52.212;5.496;2023-06-05T10:45:50;10.20;;;4.38;;
69629;SDS011;56857;52.212;5.496;2023-06-05T10:48:15;8.32;;;3.90;;
69629;SDS011;56857;52.212;5.496;2023-06-05T10:50:41;6.90;;;3.92;;
69629;SDS011;56857;52.212;5.496;2023-06-05T10:53:06;8.55;;;4.50;;
69629;SDS011;56857;52.212;5.496;2023-06-05T10:55:40;6.97;;;3.50;;
69629;SDS011;56857;52.212;5.496;2023-06-05T10:58:08;8.10;;;4.15;;
69629;SDS011;56857;52.212;5.496;2023-06-05T11:00:35;6.38;;;3.05;;
69629;SDS011;56857;52.212;5.496;2023-06-05T11:03:02;7.28;;;3.58;;
69629;SDS011;56857;52.212;5.496;2023-06-05T11:05:28;8.40;;;4.00;;
69629;SDS011;56857;52.212;5.496;2023-06-05T11:08:10;6.10;;;2.85;;
69629;SDS011;56857;52.212;5.496;2023-06-05T11:10:36;8.23;;;3.15;;
69629;SDS011;56857;52.212;5.496;2023-06-05T11:13:02;6.72;;;3.47;;
69629;SDS011;56857;52.212;5.496;2023-06-05T11:17:56;6.05;;;3.10;;
69629;SDS011;56857;52.212;5.496;2023-06-05T11:27:52;6.65;;;3.50;;
69629;SDS011;56857;52.212;5.496;2023-06-05T11:30:21;7.22;;;3.17;;
69629;SDS011;56857;52.212;5.496;2023-06-05T11:32:49;6.95;;;3.47;;
69629;SDS011;56857;52.212;5.496;2023-06-05T11:35:15;9.20;;;3.38;;
69629;SDS011;56857;52.212;5.496;2023-06-05T11:37:41;6.38;;;2.65;;
69629;SDS011;56857;52.212;5.496;2023-06-05T11:40:06;7.13;;;3.15;;
69629;SDS011;56857;52.212;5.496;2023-06-05T11:42:33;7.40;;;3.40;;
69629;SDS011;56857;52.212;5.496;2023-06-05T11:44:58;7.55;;;3.47;;
69629;SDS011;56857;52.212;5.496;2023-06-05T11:47:24;6.72;;;3.47;;
69629;SDS011;56857;52.212;5.496;2023-06-05T11:49:52;7.47;;;3.05;;
69629;SDS011;56857;52.212;5.496;2023-06-05T11:52:18;6.38;;;3.45;;
69629;SDS011;56857;52.212;5.496;2023-06-05T11:54:46;7.10;;;3.13;;
69629;SDS011;56857;52.212;5.496;2023-06-05T11:57:12;6.70;;;3.23;;
69629;SDS011;56857;52.212;5.496;2023-06-05T11:59:37;8.15;;;4.07;;
69629;SDS011;56857;52.212;5.496;2023-06-05T12:02:04;11.10;;;4.00;;
69629;SDS011;56857;52.212;5.496;2023-06-05T12:04:31;7.13;;;3.40;;
69629;SDS011;56857;52.212;5.496;2023-06-05T12:06:56;10.35;;;3.47;;
69629;SDS011;56857;52.212;5.496;2023-06-05T12:09:22;11.60;;;3.60;;
69629;SDS011;56857;52.212;5.496;2023-06-05T12:11:47;7.80;;;3.95;;
69629;SDS011;56857;52.212;5.496;2023-06-05T12:14:13;7.65;;;3.35;;
69629;SDS011;56857;52.212;5.496;2023-06-05T12:16:54;7.65;;;3.40;;
69629;SDS011;56857;52.212;5.496;2023-06-05T12:19:19;7.30;;;3.38;;
69629;SDS011;56857;52.212;5.496;2023-06-05T12:21:45;8.25;;;3.83;;
69629;SDS011;56857;52.212;5.496;2023-06-05T12:24:14;7.90;;;4.05;;
69629;SDS011;56857;52.212;5.496;2023-06-05T12:26:50;8.75;;;4.20;;
69629;SDS011;56857;52.212;5.496;2023-06-05T12:29:26;7.43;;;3.70;;
69629;SDS011;56857;52.212;5.496;2023-06-05T12:31:59;9.00;;;3.83;;
69629;SDS011;56857;52.212;5.496;2023-06-05T12:34:39;7.35;;;3.40;;
69629;SDS011;56857;52.212;5.496;2023-06-05T12:37:04;8.40;;;3.97;;
69629;SDS011;56857;52.212;5.496;2023-06-05T12:39:29;7.82;;;3.88;;
69629;SDS011;56857;52.212;5.496;2023-06-05T12:41:55;8.27;;;3.33;;
69629;SDS011;56857;52.212;5.496;2023-06-05T12:44:20;9.23;;;4.38;;
69629;SDS011;56857;52.212;5.496;2023-06-05T12:46:45;7.68;;;4.28;;
69629;SDS011;56857;52.212;5.496;2023-06-05T12:49:11;6.90;;;3.77;;
69629;SDS011;56857;52.212;5.496;2023-06-05T12:51:36;7.23;;;3.70;;
69629;SDS011;56857;52.212;5.496;2023-06-05T12:54:01;7.93;;;3.67;;
69629;SDS011;56857;52.212;5.496;2023-06-05T12:56:27;9.40;;;4.05;;
69629;SDS011;56857;52.212;5.496;2023-06-05T12:58:53;7.50;;;3.53;;
69629;SDS011;56857;52.212;5.496;2023-06-05T13:01:20;7.00;;;3.47;;
69629;SDS011;56857;52.212;5.496;2023-06-05T13:03:46;7.55;;;3.90;;
69629;SDS011;56857;52.212;5.496;2023-06-05T13:06:11;7.80;;;3.90;;
69629;SDS011;56857;52.212;5.496;2023-06-05T13:08:39;7.68;;;3.72;;
69629;SDS011;56857;52.212;5.496;2023-06-05T13:11:05;7.50;;;4.07;;
69629;SDS011;56857;52.212;5.496;2023-06-05T13:13:31;8.73;;;4.18;;
69629;SDS011;56857;52.212;5.496;2023-06-05T13:16:01;8.77;;;4.00;;
69629;SDS011;56857;52.212;5.496;2023-06-05T13:18:27;8.68;;;3.97;;
69629;SDS011;56857;52.212;5.496;2023-06-05T13:20:52;9.70;;;3.80;;
69629;SDS011;56857;52.212;5.496;2023-06-05T13:23:18;9.15;;;4.80;;
69629;SDS011;56857;52.212;5.496;2023-06-05T13:25:44;9.00;;;4.72;;
69629;SDS011;56857;52.212;5.496;2023-06-05T13:28:10;8.98;;;4.25;;
69629;SDS011;56857;52.212;5.496;2023-06-05T13:30:35;8.63;;;4.22;;
69629;SDS011;56857;52.212;5.496;2023-06-05T13:33:02;8.83;;;4.63;;
69629;SDS011;56857;52.212;5.496;2023-06-05T13:35:28;9.77;;;5.35;;
69629;SDS011;56857;52.212;5.496;2023-06-05T13:37:53;14.23;;;4.80;;
69629;SDS011;56857;52.212;5.496;2023-06-05T13:40:20;9.15;;;5.43;;
69629;SDS011;56857;52.212;5.496;2023-06-05T13:42:46;8.85;;;4.75;;
69629;SDS011;56857;52.212;5.496;2023-06-05T13:45:11;9.65;;;5.18;;
69629;SDS011;56857;52.212;5.496;2023-06-05T13:47:36;9.10;;;4.35;;
69629;SDS011;56857;52.212;5.496;2023-06-05T13:50:03;13.90;;;5.60;;
69629;SDS011;56857;52.212;5.496;2023-06-05T13:52:29;9.73;;;5.30;;
69629;SDS011;56857;52.212;5.496;2023-06-05T13:54:54;9.10;;;5.18;;
69629;SDS011;56857;52.212;5.496;2023-06-05T13:57:19;11.20;;;4.65;;
69629;SDS011;56857;52.212;5.496;2023-06-05T13:59:45;8.20;;;4.35;;
69629;SDS011;56857;52.212;5.496;2023-06-05T14:02:11;9.43;;;4.68;;
69629;SDS011;56857;52.212;5.496;2023-06-05T14:04:37;11.27;;;4.40;;
69629;SDS011;56857;52.212;5.496;2023-06-05T14:07:02;7.90;;;4.10;;
69629;SDS011;56857;52.212;5.496;2023-06-05T14:09:28;9.18;;;4.40;;
69629;SDS011;56857;52.212;5.496;2023-06-05T14:11:54;9.60;;;4.53;;
69629;SDS011;56857;52.212;5.496;2023-06-05T14:14:21;11.38;;;5.75;;
69629;SDS011;56857;52.212;5.496;2023-06-05T14:16:47;9.73;;;4.82;;
69629;SDS011;56857;52.212;5.496;2023-06-05T14:19:13;9.52;;;4.80;;
69629;SDS011;56857;52.212;5.496;2023-06-05T14:21:38;9.57;;;5.00;;
69629;SDS011;56857;52.212;5.496;2023-06-05T14:24:03;9.20;;;5.10;;
69629;SDS011;56857;52.212;5.496;2023-06-05T14:26:29;8.18;;;4.13;;
69629;SDS011;56857;52.212;5.496;2023-06-05T14:28:54;8.93;;;5.28;;
69629;SDS011;56857;52.212;5.496;2023-06-05T14:31:20;10.20;;;5.28;;
69629;SDS011;56857;52.212;5.496;2023-06-05T14:33:46;8.52;;;4.68;;
69629;SDS011;56857;52.212;5.496;2023-06-05T14:36:11;9.52;;;4.90;;
69629;SDS011;56857;52.212;5.496;2023-06-05T14:38:36;8.43;;;4.70;;
69629;SDS011;56857;52.212;5.496;2023-06-05T14:41:02;10.23;;;5.18;;
69629;SDS011;56857;52.212;5.496;2023-06-05T14:43:27;9.95;;;4.80;;
69629;SDS011;56857;52.212;5.496;2023-06-05T14:45:53;8.88;;;5.18;;
69629;SDS011;56857;52.212;5.496;2023-06-05T14:48:21;8.13;;;4.93;;
69629;SDS011;56857;52.212;5.496;2023-06-05T14:50:46;10.32;;;5.05;;
69629;SDS011;56857;52.212;5.496;2023-06-05T14:53:12;10.18;;;4.90;;
69629;SDS011;56857;52.212;5.496;2023-06-05T14:55:38;9.15;;;4.65;;
69629;SDS011;56857;52.212;5.496;2023-06-05T14:58:03;10.88;;;5.80;;
69629;SDS011;56857;52.212;5.496;2023-06-05T15:00:28;10.10;;;5.30;;
69629;SDS011;56857;52.212;5.496;2023-06-05T15:02:54;11.95;;;5.20;;
69629;SDS011;56857;52.212;5.496;2023-06-05T15:05:19;10.53;;;5.07;;
69629;SDS011;56857;52.212;5.496;2023-06-05T15:07:44;10.57;;;5.30;;